Paynesville, Indiana
Current Conditions -  °F | °C
As of 10:13 PM on Saturday 20 Dec 2014 (Local Time) from KIMS Reporting Station
Overcast Overcast  
Wind Chill: 32°   Ceiling: 2000
Heat Index: 32°   Visibility: 10mi
Dew Point: 28°   Wind: 0mph
Humidity: 87%   Direction: NA
Pressure: 30.3"   Gusts: NA
Location:  38.7056°N, 85.4906°W
Report Text: KIMS 210313Z AUTO 00000KT 10SM OVC020 00/M02 A3030 RMK AO1
Loading
Personal Weather Stations






























Interactive Weather Map New forecast layout! Learn more

10-Day Weather Forecast

Advertisements
Track Severe Weather on mobile